sensor_id;sensor_type;location;lat;lon;timestamp;P1;durP1;ratioP1;P2;durP2;ratioP2
47669;SDS011;33408;52.062;11.722;2024-01-10T00:01:28;44.88;;;24.48;;
47669;SDS011;33408;52.062;11.722;2024-01-10T00:03:55;43.50;;;26.52;;
47669;SDS011;33408;52.062;11.722;2024-01-10T00:06:22;41.40;;;23.15;;
47669;SDS011;33408;52.062;11.722;2024-01-10T00:08:48;37.35;;;23.30;;
47669;SDS011;33408;52.062;11.722;2024-01-10T00:11:17;42.60;;;25.17;;
47669;SDS011;33408;52.062;11.722;2024-01-10T00:13:44;43.03;;;25.02;;
47669;SDS011;33408;52.062;11.722;2024-01-10T00:16:12;43.53;;;27.33;;
47669;SDS011;33408;52.062;11.722;2024-01-10T00:18:40;43.88;;;25.38;;
47669;SDS011;33408;52.062;11.722;2024-01-10T00:21:06;42.67;;;26.58;;
47669;SDS011;33408;52.062;11.722;2024-01-10T00:23:34;43.92;;;26.00;;
47669;SDS011;33408;52.062;11.722;2024-01-10T00:26:00;41.63;;;23.63;;
47669;SDS011;33408;52.062;11.722;2024-01-10T00:28:27;35.47;;;21.70;;
47669;SDS011;33408;52.062;11.722;2024-01-10T00:30:53;41.10;;;24.08;;
47669;SDS011;33408;52.062;11.722;2024-01-10T00:33:21;43.28;;;24.17;;
47669;SDS011;33408;52.062;11.722;2024-01-10T00:35:48;42.63;;;26.27;;
47669;SDS011;33408;52.062;11.722;2024-01-10T00:38:14;39.70;;;22.92;;
47669;SDS011;33408;52.062;11.722;2024-01-10T00:40:41;38.17;;;23.70;;
47669;SDS011;33408;52.062;11.722;2024-01-10T00:43:08;42.15;;;24.00;;
47669;SDS011;33408;52.062;11.722;2024-01-10T00:45:34;41.63;;;24.23;;
47669;SDS011;33408;52.062;11.722;2024-01-10T00:48:01;42.92;;;25.25;;
47669;SDS011;33408;52.062;11.722;2024-01-10T00:50:29;41.65;;;23.65;;
47669;SDS011;33408;52.062;11.722;2024-01-10T00:52:56;38.10;;;23.90;;
47669;SDS011;33408;52.062;11.722;2024-01-10T00:55:22;39.92;;;25.92;;
47669;SDS011;33408;52.062;11.722;2024-01-10T00:57:49;49.10;;;26.38;;
47669;SDS011;33408;52.062;11.722;2024-01-10T01:00:15;39.70;;;24.58;;
47669;SDS011;33408;52.062;11.722;2024-01-10T01:02:42;41.03;;;25.23;;
47669;SDS011;33408;52.062;11.722;2024-01-10T01:05:09;39.58;;;25.35;;
47669;SDS011;33408;52.062;11.722;2024-01-10T01:07:37;45.63;;;26.30;;
47669;SDS011;33408;52.062;11.722;2024-01-10T01:10:03;43.92;;;27.02;;
47669;SDS011;33408;52.062;11.722;2024-01-10T01:12:30;38.55;;;25.00;;
47669;SDS011;33408;52.062;11.722;2024-01-10T01:14:57;45.28;;;25.48;;
47669;SDS011;33408;52.062;11.722;2024-01-10T01:17:24;40.17;;;26.00;;
47669;SDS011;33408;52.062;11.722;2024-01-10T01:19:51;47.78;;;24.95;;
47669;SDS011;33408;52.062;11.722;2024-01-10T01:22:17;39.60;;;25.30;;
47669;SDS011;33408;52.062;11.722;2024-01-10T01:24:45;48.28;;;25.02;;
47669;SDS011;33408;52.062;11.722;2024-01-10T01:27:12;48.00;;;25.60;;
47669;SDS011;33408;52.062;11.722;2024-01-10T01:29:38;45.80;;;25.42;;
47669;SDS011;33408;52.062;11.722;2024-01-10T01:32:05;43.35;;;26.40;;
47669;SDS011;33408;52.062;11.722;2024-01-10T01:34:32;45.67;;;27.15;;
47669;SDS011;33408;52.062;11.722;2024-01-10T01:36:58;45.70;;;25.65;;
47669;SDS011;33408;52.062;11.722;2024-01-10T01:39:26;39.83;;;24.58;;
47669;SDS011;33408;52.062;11.722;2024-01-10T01:41:54;44.53;;;26.55;;
47669;SDS011;33408;52.062;11.722;2024-01-10T01:44:20;35.88;;;22.13;;
47669;SDS011;33408;52.062;11.722;2024-01-10T01:46:47;38.90;;;24.95;;
47669;SDS011;33408;52.062;11.722;2024-01-10T01:49:14;44.03;;;26.25;;
47669;SDS011;33408;52.062;11.722;2024-01-10T01:51:41;41.08;;;24.35;;
47669;SDS011;33408;52.062;11.722;2024-01-10T01:54:08;49.00;;;28.70;;
47669;SDS011;33408;52.062;11.722;2024-01-10T01:56:36;36.95;;;22.67;;
47669;SDS011;33408;52.062;11.722;2024-01-10T01:59:04;44.38;;;27.05;;
47669;SDS011;33408;52.062;11.722;2024-01-10T02:01:31;47.10;;;25.40;;
47669;SDS011;33408;52.062;11.722;2024-01-10T02:03:58;43.85;;;27.63;;
47669;SDS011;33408;52.062;11.722;2024-01-10T02:06:26;42.33;;;25.13;;
47669;SDS011;33408;52.062;11.722;2024-01-10T02:08:53;39.22;;;25.33;;
47669;SDS011;33408;52.062;11.722;2024-01-10T02:11:21;40.97;;;24.48;;
47669;SDS011;33408;52.062;11.722;2024-01-10T02:13:48;47.28;;;28.65;;
47669;SDS011;33408;52.062;11.722;2024-01-10T02:16:18;50.58;;;28.45;;
47669;SDS011;33408;52.062;11.722;2024-01-10T02:18:44;43.95;;;26.38;;
47669;SDS011;33408;52.062;11.722;2024-01-10T02:21:14;42.65;;;28.13;;
47669;SDS011;33408;52.062;11.722;2024-01-10T02:23:40;48.15;;;28.10;;
47669;SDS011;33408;52.062;11.722;2024-01-10T02:26:08;46.47;;;26.75;;
47669;SDS011;33408;52.062;11.722;2024-01-10T02:28:35;51.80;;;28.98;;
47669;SDS011;33408;52.062;11.722;2024-01-10T02:31:01;50.40;;;27.90;;
47669;SDS011;33408;52.062;11.722;2024-01-10T02:33:28;44.92;;;28.08;;
47669;SDS011;33408;52.062;11.722;2024-01-10T02:35:55;42.03;;;26.67;;
47669;SDS011;33408;52.062;11.722;2024-01-10T02:38:22;45.15;;;26.67;;
47669;SDS011;33408;52.062;11.722;2024-01-10T02:40:48;48.65;;;28.02;;
47669;SDS011;33408;52.062;11.722;2024-01-10T02:43:16;45.28;;;28.65;;
47669;SDS011;33408;52.062;11.722;2024-01-10T02:45:43;54.03;;;29.75;;
47669;SDS011;33408;52.062;11.722;2024-01-10T02:48:10;46.95;;;29.08;;
47669;SDS011;33408;52.062;11.722;2024-01-10T02:50:36;60.00;;;30.65;;
47669;SDS011;33408;52.062;11.722;2024-01-10T02:53:03;44.30;;;28.55;;
47669;SDS011;33408;52.062;11.722;2024-01-10T02:55:30;47.38;;;28.25;;
47669;SDS011;33408;52.062;11.722;2024-01-10T02:57:57;40.25;;;27.05;;
47669;SDS011;33408;52.062;11.722;2024-01-10T03:00:24;50.38;;;29.90;;
47669;SDS011;33408;52.062;11.722;2024-01-10T03:02:51;49.90;;;28.45;;
47669;SDS011;33408;52.062;11.722;2024-01-10T03:05:18;50.03;;;30.55;;
47669;SDS011;33408;52.062;11.722;2024-01-10T03:07:44;51.47;;;28.77;;
47669;SDS011;33408;52.062;11.722;2024-01-10T03:10:11;48.00;;;28.65;;
47669;SDS011;33408;52.062;11.722;2024-01-10T03:12:37;52.75;;;31.02;;
47669;SDS011;33408;52.062;11.722;2024-01-10T03:15:06;50.10;;;28.80;;
47669;SDS011;33408;52.062;11.722;2024-01-10T03:17:34;50.33;;;30.90;;
47669;SDS011;33408;52.062;11.722;2024-01-10T03:20:01;52.25;;;32.10;;
47669;SDS011;33408;52.062;11.722;2024-01-10T03:22:28;46.55;;;30.05;;
47669;SDS011;33408;52.062;11.722;2024-01-10T03:24:55;49.08;;;27.92;;
47669;SDS011;33408;52.062;11.722;2024-01-10T03:27:22;48.60;;;30.45;;
47669;SDS011;33408;52.062;11.722;2024-01-10T03:29:48;44.63;;;28.35;;
47669;SDS011;33408;52.062;11.722;2024-01-10T03:32:15;45.55;;;28.65;;
47669;SDS011;33408;52.062;11.722;2024-01-10T03:34:43;51.85;;;31.55;;
47669;SDS011;33408;52.062;11.722;2024-01-10T03:37:09;49.28;;;29.85;;
47669;SDS011;33408;52.062;11.722;2024-01-10T03:39:36;51.92;;;28.75;;
47669;SDS011;33408;52.062;11.722;2024-01-10T03:42:02;46.25;;;29.70;;
47669;SDS011;33408;52.062;11.722;2024-01-10T03:44:29;50.92;;;30.80;;
47669;SDS011;33408;52.062;11.722;2024-01-10T03:46:56;48.97;;;31.08;;
47669;SDS011;33408;52.062;11.722;2024-01-10T03:49:22;54.70;;;30.38;;
47669;SDS011;33408;52.062;11.722;2024-01-10T03:51:51;52.63;;;31.00;;
47669;SDS011;33408;52.062;11.722;2024-01-10T03:54:17;49.30;;;29.45;;
47669;SDS011;33408;52.062;11.722;2024-01-10T03:56:44;45.90;;;29.55;;
47669;SDS011;33408;52.062;11.722;2024-01-10T03:59:10;51.58;;;30.30;;
47669;SDS011;33408;52.062;11.722;2024-01-10T04:01:37;47.78;;;30.27;;
47669;SDS011;33408;52.062;11.722;2024-01-10T04:04:04;47.90;;;29.13;;
47669;SDS011;33408;52.062;11.722;2024-01-10T04:06:31;52.33;;;29.38;;
47669;SDS011;33408;52.062;11.722;2024-01-10T04:08:58;46.40;;;30.83;;
47669;SDS011;33408;52.062;11.722;2024-01-10T04:11:25;49.15;;;29.80;;
47669;SDS011;33408;52.062;11.722;2024-01-10T04:13:52;48.97;;;28.58;;
47669;SDS011;33408;52.062;11.722;2024-01-10T04:16:18;54.50;;;33.15;;
47669;SDS011;33408;52.062;11.722;2024-01-10T04:18:45;49.85;;;29.42;;
47669;SDS011;33408;52.062;11.722;2024-01-10T04:21:11;50.72;;;31.60;;
47669;SDS011;33408;52.062;11.722;2024-01-10T04:23:38;54.40;;;33.25;;
47669;SDS011;33408;52.062;11.722;2024-01-10T04:26:06;56.13;;;33.15;;
47669;SDS011;33408;52.062;11.722;2024-01-10T04:28:32;52.10;;;33.03;;
47669;SDS011;33408;52.062;11.722;2024-01-10T04:30:59;53.50;;;32.08;;
47669;SDS011;33408;52.062;11.722;2024-01-10T04:33:25;56.40;;;33.80;;
47669;SDS011;33408;52.062;11.722;2024-01-10T04:35:51;56.38;;;33.17;;
47669;SDS011;33408;52.062;11.722;2024-01-10T04:38:18;53.08;;;33.85;;
47669;SDS011;33408;52.062;11.722;2024-01-10T04:40:44;54.10;;;32.00;;
47669;SDS011;33408;52.062;11.722;2024-01-10T04:43:12;52.17;;;33.83;;
47669;SDS011;33408;52.062;11.722;2024-01-10T04:45:39;55.78;;;34.15;;
47669;SDS011;33408;52.062;11.722;2024-01-10T04:48:06;59.17;;;35.28;;
47669;SDS011;33408;52.062;11.722;2024-01-10T04:50:33;56.88;;;33.45;;
47669;SDS011;33408;52.062;11.722;2024-01-10T04:53:00;58.63;;;34.30;;
47669;SDS011;33408;52.062;11.722;2024-01-10T04:55:27;54.92;;;32.55;;
47669;SDS011;33408;52.062;11.722;2024-01-10T04:57:53;57.20;;;34.40;;
47669;SDS011;33408;52.062;11.722;2024-01-10T05:00:21;63.10;;;35.90;;
47669;SDS011;33408;52.062;11.722;2024-01-10T05:02:48;59.00;;;34.13;;
47669;SDS011;33408;52.062;11.722;2024-01-10T05:05:14;54.60;;;32.78;;
47669;SDS011;33408;52.062;11.722;2024-01-10T05:07:43;58.53;;;33.80;;
47669;SDS011;33408;52.062;11.722;2024-01-10T05:10:10;60.05;;;34.22;;
47669;SDS011;33408;52.062;11.722;2024-01-10T05:12:36;60.08;;;35.15;;
47669;SDS011;33408;52.062;11.722;2024-01-10T05:15:03;63.58;;;35.13;;
47669;SDS011;33408;52.062;11.722;2024-01-10T05:17:32;59.47;;;35.17;;
47669;SDS011;33408;52.062;11.722;2024-01-10T05:19:58;59.13;;;35.33;;
47669;SDS011;33408;52.062;11.722;2024-01-10T05:22:26;54.40;;;35.35;;
47669;SDS011;33408;52.062;11.722;2024-01-10T05:24:52;62.58;;;36.33;;
47669;SDS011;33408;52.062;11.722;2024-01-10T05:27:19;63.47;;;36.30;;
47669;SDS011;33408;52.062;11.722;2024-01-10T05:29:46;60.80;;;34.65;;
47669;SDS011;33408;52.062;11.722;2024-01-10T05:32:12;59.30;;;36.50;;
47669;SDS011;33408;52.062;11.722;2024-01-10T05:34:40;59.42;;;34.13;;
47669;SDS011;33408;52.062;11.722;2024-01-10T05:37:07;59.05;;;36.13;;
47669;SDS011;33408;52.062;11.722;2024-01-10T05:39:33;57.58;;;33.75;;
47669;SDS011;33408;52.062;11.722;2024-01-10T05:42:00;58.05;;;34.45;;
47669;SDS011;33408;52.062;11.722;2024-01-10T05:44:27;60.80;;;33.92;;
47669;SDS011;33408;52.062;11.722;2024-01-10T05:46:54;58.17;;;35.85;;
47669;SDS011;33408;52.062;11.722;2024-01-10T05:49:23;57.13;;;34.05;;
47669;SDS011;33408;52.062;11.722;2024-01-10T05:51:51;61.08;;;33.55;;
47669;SDS011;33408;52.062;11.722;2024-01-10T05:54:17;59.25;;;35.50;;
47669;SDS011;33408;52.062;11.722;2024-01-10T05:56:44;56.42;;;34.47;;
47669;SDS011;33408;52.062;11.722;2024-01-10T05:59:11;60.42;;;35.67;;
47669;SDS011;33408;52.062;11.722;2024-01-10T06:01:37;57.72;;;35.72;;
47669;SDS011;33408;52.062;11.722;2024-01-10T06:04:04;50.92;;;31.77;;
47669;SDS011;33408;52.062;11.722;2024-01-10T06:06:31;57.13;;;35.70;;
47669;SDS011;33408;52.062;11.722;2024-01-10T06:08:59;54.38;;;34.50;;
47669;SDS011;33408;52.062;11.722;2024-01-10T06:11:26;72.78;;;36.97;;
47669;SDS011;33408;52.062;11.722;2024-01-10T06:13:52;59.97;;;36.60;;
47669;SDS011;33408;52.062;11.722;2024-01-10T06:16:19;59.97;;;35.17;;
47669;SDS011;33408;52.062;11.722;2024-01-10T06:18:46;59.13;;;37.88;;
47669;SDS011;33408;52.062;11.722;2024-01-10T06:21:13;56.70;;;33.80;;
47669;SDS011;33408;52.062;11.722;2024-01-10T06:23:40;63.63;;;34.08;;
47669;SDS011;33408;52.062;11.722;2024-01-10T06:26:08;53.63;;;34.42;;
47669;SDS011;33408;52.062;11.722;2024-01-10T06:28:35;56.13;;;35.22;;
47669;SDS011;33408;52.062;11.722;2024-01-10T06:31:02;55.10;;;32.78;;
47669;SDS011;33408;52.062;11.722;2024-01-10T06:33:29;58.78;;;36.63;;
47669;SDS011;33408;52.062;11.722;2024-01-10T06:35:55;57.42;;;34.65;;
47669;SDS011;33408;52.062;11.722;2024-01-10T06:38:22;57.72;;;34.67;;
47669;SDS011;33408;52.062;11.722;2024-01-10T06:40:49;58.58;;;36.03;;
47669;SDS011;33408;52.062;11.722;2024-01-10T06:43:17;55.75;;;35.22;;
47669;SDS011;33408;52.062;11.722;2024-01-10T06:45:43;52.90;;;33.53;;
47669;SDS011;33408;52.062;11.722;2024-01-10T06:48:10;58.13;;;34.85;;
47669;SDS011;33408;52.062;11.722;2024-01-10T06:50:36;50.42;;;31.20;;
47669;SDS011;33408;52.062;11.722;2024-01-10T06:53:03;55.40;;;33.85;;
47669;SDS011;33408;52.062;11.722;2024-01-10T06:55:30;54.33;;;32.08;;
47669;SDS011;33408;52.062;11.722;2024-01-10T06:57:57;56.47;;;32.90;;
47669;SDS011;33408;52.062;11.722;2024-01-10T07:00:24;57.05;;;33.88;;
47669;SDS011;33408;52.062;11.722;2024-01-10T07:02:51;58.70;;;33.42;;
47669;SDS011;33408;52.062;11.722;2024-01-10T07:05:18;61.95;;;36.40;;
47669;SDS011;33408;52.062;11.722;2024-01-10T07:07:45;59.00;;;33.85;;
47669;SDS011;33408;52.062;11.722;2024-01-10T07:10:11;62.72;;;35.67;;
47669;SDS011;33408;52.062;11.722;2024-01-10T07:12:38;62.65;;;35.80;;
47669;SDS011;33408;52.062;11.722;2024-01-10T07:15:05;65.60;;;35.88;;
47669;SDS011;33408;52.062;11.722;2024-01-10T07:17:34;56.33;;;34.20;;
47669;SDS011;33408;52.062;11.722;2024-01-10T07:20:00;65.07;;;37.35;;
47669;SDS011;33408;52.062;11.722;2024-01-10T07:22:28;61.05;;;35.80;;
47669;SDS011;33408;52.062;11.722;2024-01-10T07:24:55;59.55;;;36.42;;
47669;SDS011;33408;52.062;11.722;2024-01-10T07:27:22;69.07;;;36.88;;
47669;SDS011;33408;52.062;11.722;2024-01-10T07:29:49;72.82;;;38.53;;
47669;SDS011;33408;52.062;11.722;2024-01-10T07:32:15;73.22;;;37.67;;
47669;SDS011;33408;52.062;11.722;2024-01-10T07:34:43;50.97;;;29.40;;
47669;SDS011;33408;52.062;11.722;2024-01-10T07:37:10;59.60;;;36.25;;
47669;SDS011;33408;52.062;11.722;2024-01-10T07:39:37;59.65;;;34.92;;
47669;SDS011;33408;52.062;11.722;2024-01-10T07:42:04;57.58;;;36.90;;
47669;SDS011;33408;52.062;11.722;2024-01-10T07:44:30;61.80;;;35.95;;
47669;SDS011;33408;52.062;11.722;2024-01-10T07:46:57;64.05;;;36.40;;
47669;SDS011;33408;52.062;11.722;2024-01-10T07:49:23;61.08;;;33.90;;
47669;SDS011;33408;52.062;11.722;2024-01-10T07:51:52;60.20;;;36.58;;
47669;SDS011;33408;52.062;11.722;2024-01-10T07:54:19;71.70;;;37.25;;
47669;SDS011;33408;52.062;11.722;2024-01-10T07:56:46;60.50;;;36.17;;
47669;SDS011;33408;52.062;11.722;2024-01-10T07:59:12;73.40;;;39.13;;
47669;SDS011;33408;52.062;11.722;2024-01-10T08:01:41;49.28;;;32.15;;
47669;SDS011;33408;52.062;11.722;2024-01-10T08:04:10;59.45;;;38.42;;
47669;SDS011;33408;52.062;11.722;2024-01-10T08:06:37;67.25;;;38.80;;
47669;SDS011;33408;52.062;11.722;2024-01-10T08:09:05;62.13;;;35.92;;
47669;SDS011;33408;52.062;11.722;2024-01-10T08:11:31;59.65;;;38.00;;
47669;SDS011;33408;52.062;11.722;2024-01-10T08:13:59;69.88;;;39.00;;
47669;SDS011;33408;52.062;11.722;2024-01-10T08:16:26;63.45;;;41.95;;
47669;SDS011;33408;52.062;11.722;2024-01-10T08:18:52;76.25;;;45.28;;
47669;SDS011;33408;52.062;11.722;2024-01-10T08:21:19;70.00;;;42.53;;
47669;SDS011;33408;52.062;11.722;2024-01-10T08:23:45;71.82;;;42.28;;
47669;SDS011;33408;52.062;11.722;2024-01-10T08:26:13;74.57;;;46.78;;
47669;SDS011;33408;52.062;11.722;2024-01-10T08:28:40;78.40;;;44.35;;
47669;SDS011;33408;52.062;11.722;2024-01-10T08:31:07;73.45;;;43.03;;
47669;SDS011;33408;52.062;11.722;2024-01-10T08:33:34;68.95;;;39.80;;
47669;SDS011;33408;52.062;11.722;2024-01-10T08:36:01;66.47;;;42.13;;
47669;SDS011;33408;52.062;11.722;2024-01-10T08:38:27;70.18;;;43.88;;
47669;SDS011;33408;52.062;11.722;2024-01-10T08:40:54;69.05;;;41.17;;
47669;SDS011;33408;52.062;11.722;2024-01-10T08:43:22;76.30;;;43.88;;
47669;SDS011;33408;52.062;11.722;2024-01-10T08:45:48;69.00;;;42.35;;
47669;SDS011;33408;52.062;11.722;2024-01-10T08:48:15;65.95;;;42.65;;
47669;SDS011;33408;52.062;11.722;2024-01-10T08:50:42;70.32;;;42.53;;
47669;SDS011;33408;52.062;11.722;2024-01-10T08:53:09;63.58;;;33.55;;
47669;SDS011;33408;52.062;11.722;2024-01-10T08:55:36;68.95;;;43.35;;
47669;SDS011;33408;52.062;11.722;2024-01-10T08:58:03;68.43;;;41.30;;
47669;SDS011;33408;52.062;11.722;2024-01-10T09:00:31;72.63;;;42.92;;
47669;SDS011;33408;52.062;11.722;2024-01-10T09:02:57;73.28;;;43.83;;
47669;SDS011;33408;52.062;11.722;2024-01-10T09:05:24;67.57;;;43.65;;
47669;SDS011;33408;52.062;11.722;2024-01-10T09:07:51;66.45;;;39.83;;
47669;SDS011;33408;52.062;11.722;2024-01-10T09:10:18;67.82;;;39.45;;
47669;SDS011;33408;52.062;11.722;2024-01-10T09:12:46;73.70;;;41.28;;
47669;SDS011;33408;52.062;11.722;2024-01-10T09:15:13;68.80;;;44.40;;
47669;SDS011;33408;52.062;11.722;2024-01-10T09:17:42;74.25;;;44.70;;
47669;SDS011;33408;52.062;11.722;2024-01-10T09:20:09;72.35;;;42.15;;
47669;SDS011;33408;52.062;11.722;2024-01-10T09:22:36;67.03;;;39.28;;
47669;SDS011;33408;52.062;11.722;2024-01-10T09:25:03;72.78;;;42.33;;
47669;SDS011;33408;52.062;11.722;2024-01-10T09:27:30;78.82;;;46.05;;
47669;SDS011;33408;52.062;11.722;2024-01-10T09:29:58;71.38;;;42.17;;
47669;SDS011;33408;52.062;11.722;2024-01-10T09:32:27;76.25;;;42.75;;
47669;SDS011;33408;52.062;11.722;2024-01-10T09:34:55;69.45;;;41.90;;
47669;SDS011;33408;52.062;11.722;2024-01-10T09:37:23;75.25;;;45.42;;
47669;SDS011;33408;52.062;11.722;2024-01-10T09:39:49;74.30;;;43.67;;
47669;SDS011;33408;52.062;11.722;2024-01-10T09:42:17;75.30;;;44.60;;
47669;SDS011;33408;52.062;11.722;2024-01-10T09:44:45;71.57;;;43.40;;
47669;SDS011;33408;52.062;11.722;2024-01-10T09:47:13;87.90;;;55.20;;
47669;SDS011;33408;52.062;11.722;2024-01-10T09:49:42;82.47;;;47.80;;
47669;SDS011;33408;52.062;11.722;2024-01-10T09:52:11;77.95;;;48.53;;
47669;SDS011;33408;52.062;11.722;2024-01-10T09:54:45;72.68;;;45.00;;
47669;SDS011;33408;52.062;11.722;2024-01-10T09:57:17;70.13;;;42.80;;
47669;SDS011;33408;52.062;11.722;2024-01-10T09:59:46;66.40;;;42.75;;
47669;SDS011;33408;52.062;11.722;2024-01-10T10:02:16;69.15;;;43.00;;
47669;SDS011;33408;52.062;11.722;2024-01-10T10:04:46;69.47;;;43.67;;
47669;SDS011;33408;52.062;11.722;2024-01-10T10:07:21;76.22;;;45.33;;
47669;SDS011;33408;52.062;11.722;2024-01-10T10:09:48;71.40;;;46.13;;
47669;SDS011;33408;52.062;11.722;2024-01-10T10:12:15;73.38;;;41.85;;
47669;SDS011;33408;52.062;11.722;2024-01-10T10:14:41;72.15;;;44.25;;
47669;SDS011;33408;52.062;11.722;2024-01-10T10:17:14;69.45;;;44.70;;
47669;SDS011;33408;52.062;11.722;2024-01-10T10:19:41;70.55;;;40.45;;
47669;SDS011;33408;52.062;11.722;2024-01-10T10:22:08;78.25;;;45.30;;
47669;SDS011;33408;52.062;11.722;2024-01-10T10:24:38;75.30;;;41.78;;
47669;SDS011;33408;52.062;11.722;2024-01-10T10:27:07;56.60;;;37.85;;
47669;SDS011;33408;52.062;11.722;2024-01-10T10:29:35;72.20;;;42.85;;
47669;SDS011;33408;52.062;11.722;2024-01-10T10:32:02;76.20;;;45.05;;
47669;SDS011;33408;52.062;11.722;2024-01-10T10:34:30;71.63;;;45.42;;
47669;SDS011;33408;52.062;11.722;2024-01-10T10:36:58;77.55;;;45.83;;
47669;SDS011;33408;52.062;11.722;2024-01-10T10:39:25;68.30;;;43.83;;
47669;SDS011;33408;52.062;11.722;2024-01-10T10:41:52;72.43;;;47.60;;
47669;SDS011;33408;52.062;11.722;2024-01-10T10:44:20;75.43;;;46.72;;
47669;SDS011;33408;52.062;11.722;2024-01-10T10:46:52;71.22;;;42.65;;
47669;SDS011;33408;52.062;11.722;2024-01-10T10:49:22;69.82;;;41.72;;
47669;SDS011;33408;52.062;11.722;2024-01-10T10:51:57;66.20;;;42.90;;
47669;SDS011;33408;52.062;11.722;2024-01-10T10:54:26;72.60;;;44.15;;
47669;SDS011;33408;52.062;11.722;2024-01-10T10:56:56;82.32;;;48.42;;
47669;SDS011;33408;52.062;11.722;2024-01-10T10:59:24;71.72;;;43.63;;
47669;SDS011;33408;52.062;11.722;2024-01-10T11:01:53;81.22;;;50.83;;
47669;SDS011;33408;52.062;11.722;2024-01-10T11:04:21;71.03;;;45.63;;
47669;SDS011;33408;52.062;11.722;2024-01-10T11:06:48;80.78;;;53.55;;
47669;SDS011;33408;52.062;11.722;2024-01-10T11:09:15;73.72;;;45.38;;
47669;SDS011;33408;52.062;11.722;2024-01-10T11:11:53;70.77;;;42.63;;
47669;SDS011;33408;52.062;11.722;2024-01-10T11:14:49;67.10;;;41.33;;
47669;SDS011;33408;52.062;11.722;2024-01-10T11:20:38;76.78;;;47.55;;
47669;SDS011;33408;52.062;11.722;2024-01-10T11:23:22;109.00;;;69.55;;
47669;SDS011;33408;52.062;11.722;2024-01-10T11:26:04;69.57;;;45.50;;
47669;SDS011;33408;52.062;11.722;2024-01-10T11:28:32;95.55;;;61.33;;
47669;SDS011;33408;52.062;11.722;2024-01-10T11:30:59;89.70;;;54.13;;
47669;SDS011;33408;52.062;11.722;2024-01-10T11:33:30;74.57;;;46.58;;
47669;SDS011;33408;52.062;11.722;2024-01-10T11:36:07;69.82;;;43.38;;
47669;SDS011;33408;52.062;11.722;2024-01-10T11:38:44;69.85;;;41.20;;
47669;SDS011;33408;52.062;11.722;2024-01-10T11:41:21;69.13;;;41.78;;
47669;SDS011;33408;52.062;11.722;2024-01-10T11:46:56;66.35;;;43.47;;
47669;SDS011;33408;52.062;11.722;2024-01-10T11:49:24;79.32;;;43.70;;
47669;SDS011;33408;52.062;11.722;2024-01-10T11:51:53;68.70;;;43.58;;
47669;SDS011;33408;52.062;11.722;2024-01-10T11:54:40;67.10;;;44.58;;
47669;SDS011;33408;52.062;11.722;2024-01-10T11:57:08;73.20;;;44.65;;
47669;SDS011;33408;52.062;11.722;2024-01-10T11:59:38;70.00;;;42.85;;
47669;SDS011;33408;52.062;11.722;2024-01-10T12:02:07;75.00;;;45.13;;
47669;SDS011;33408;52.062;11.722;2024-01-10T12:04:34;71.82;;;41.92;;
47669;SDS011;33408;52.062;11.722;2024-01-10T12:07:01;67.03;;;42.05;;
47669;SDS011;33408;52.062;11.722;2024-01-10T12:09:28;68.10;;;42.92;;
47669;SDS011;33408;52.062;11.722;2024-01-10T12:11:55;73.03;;;47.28;;
47669;SDS011;33408;52.062;11.722;2024-01-10T12:14:22;65.80;;;44.50;;
47669;SDS011;33408;52.062;11.722;2024-01-10T12:16:51;73.13;;;45.42;;
47669;SDS011;33408;52.062;11.722;2024-01-10T12:19:18;67.63;;;43.55;;
47669;SDS011;33408;52.062;11.722;2024-01-10T12:21:45;71.53;;;42.72;;
47669;SDS011;33408;52.062;11.722;2024-01-10T12:24:12;76.40;;;44.83;;
47669;SDS011;33408;52.062;11.722;2024-01-10T12:26:43;65.95;;;41.00;;
47669;SDS011;33408;52.062;11.722;2024-01-10T12:29:09;65.97;;;43.13;;
47669;SDS011;33408;52.062;11.722;2024-01-10T12:31:36;69.45;;;43.22;;
47669;SDS011;33408;52.062;11.722;2024-01-10T12:34:06;69.38;;;41.72;;
47669;SDS011;33408;52.062;11.722;2024-01-10T12:36:33;78.78;;;47.92;;
47669;SDS011;33408;52.062;11.722;2024-01-10T12:39:00;73.22;;;45.63;;
47669;SDS011;33408;52.062;11.722;2024-01-10T12:41:32;68.70;;;41.60;;
47669;SDS011;33408;52.062;11.722;2024-01-10T12:44:00;67.95;;;43.53;;
47669;SDS011;33408;52.062;11.722;2024-01-10T12:46:30;72.93;;;45.83;;
47669;SDS011;33408;52.062;11.722;2024-01-10T12:48:58;67.15;;;40.08;;
47669;SDS011;33408;52.062;11.722;2024-01-10T12:51:26;69.20;;;43.88;;
47669;SDS011;33408;52.062;11.722;2024-01-10T12:53:54;67.57;;;43.08;;
47669;SDS011;33408;52.062;11.722;2024-01-10T12:56:23;73.90;;;46.10;;
47669;SDS011;33408;52.062;11.722;2024-01-10T12:58:50;63.53;;;41.22;;
47669;SDS011;33408;52.062;11.722;2024-01-10T13:01:17;60.53;;;41.10;;
47669;SDS011;33408;52.062;11.722;2024-01-10T13:03:43;70.45;;;44.10;;
47669;SDS011;33408;52.062;11.722;2024-01-10T13:06:10;66.88;;;41.55;;
47669;SDS011;33408;52.062;11.722;2024-01-10T13:08:38;68.38;;;41.67;;
47669;SDS011;33408;52.062;11.722;2024-01-10T13:11:05;73.05;;;46.00;;
47669;SDS011;33408;52.062;11.722;2024-01-10T13:13:34;70.88;;;43.72;;
47669;SDS011;33408;52.062;11.722;2024-01-10T13:16:00;68.03;;;45.45;;
47669;SDS011;33408;52.062;11.722;2024-01-10T13:18:27;69.72;;;44.08;;
47669;SDS011;33408;52.062;11.722;2024-01-10T13:20:54;66.93;;;44.50;;
47669;SDS011;33408;52.062;11.722;2024-01-10T13:23:22;74.22;;;44.70;;
47669;SDS011;33408;52.062;11.722;2024-01-10T13:25:50;50.90;;;29.45;;
47669;SDS011;33408;52.062;11.722;2024-01-10T13:28:17;63.75;;;42.20;;
47669;SDS011;33408;52.062;11.722;2024-01-10T13:30:44;65.70;;;42.90;;
47669;SDS011;33408;52.062;11.722;2024-01-10T13:33:11;69.13;;;43.50;;
47669;SDS011;33408;52.062;11.722;2024-01-10T13:35:38;69.88;;;42.72;;
47669;SDS011;33408;52.062;11.722;2024-01-10T13:38:05;62.45;;;39.08;;
47669;SDS011;33408;52.062;11.722;2024-01-10T13:40:32;68.07;;;41.15;;
47669;SDS011;33408;52.062;11.722;2024-01-10T13:43:00;73.20;;;42.45;;
47669;SDS011;33408;52.062;11.722;2024-01-10T13:45:27;68.00;;;43.15;;
47669;SDS011;33408;52.062;11.722;2024-01-10T13:47:54;69.22;;;43.85;;
47669;SDS011;33408;52.062;11.722;2024-01-10T13:50:21;66.68;;;41.65;;
47669;SDS011;33408;52.062;11.722;2024-01-10T13:52:49;71.38;;;42.95;;
47669;SDS011;33408;52.062;11.722;2024-01-10T13:55:16;66.72;;;42.67;;
47669;SDS011;33408;52.062;11.722;2024-01-10T13:57:42;67.18;;;41.85;;
47669;SDS011;33408;52.062;11.722;2024-01-10T14:00:11;72.60;;;40.30;;
47669;SDS011;33408;52.062;11.722;2024-01-10T14:02:39;71.50;;;41.90;;
47669;SDS011;33408;52.062;11.722;2024-01-10T14:05:06;72.10;;;43.13;;
47669;SDS011;33408;52.062;11.722;2024-01-10T14:07:35;67.13;;;42.67;;
47669;SDS011;33408;52.062;11.722;2024-01-10T14:10:01;61.70;;;39.88;;
47669;SDS011;33408;52.062;11.722;2024-01-10T14:12:28;63.45;;;40.35;;
47669;SDS011;33408;52.062;11.722;2024-01-10T14:14:55;65.03;;;41.03;;
47669;SDS011;33408;52.062;11.722;2024-01-10T14:17:23;61.05;;;40.30;;